CheckWX is a tool to help pilots better visualize weather data.  It is not intended as a substitute for an official pre-flight weather briefing.

01:48:44 UTC

LICT TAF
Vincenzo Florio Trapani-Birgi Airport
Trapani, Italy
TAF LICT 192300Z 2000/2009 12010KT 9999 FEW025

Jan-20@
00:00 UTC

Jan-20 @ 00:00 UTC

Jan-20@
09:00 UTC

Jan-20 @ 09:00 UTC

TAF LICT 192300Z 2000/2009 12010KT 9999 FEW025
Wind
  • 120° at 10 KTS
Cloud Levels
  • Few at 2,500' AGL